Sixes, Oregon
Current Conditions -  °F | °C
As of 3:35 PM on Saturday 20 Dec 2014 (Local Time) from KOTH Reporting Station
Overcast Overcast  
Wind Chill: 57°   Ceiling: 900
Heat Index: 57°   Visibility: 1.2mi
Dew Point: 57°   Wind: 15mph
Humidity: 100%   Direction: 210°SSW
Pressure: 29.84"   Gusts: 26mph
Location:  42.82°N, 124.49°W
Report Text: KOTH 202335Z 21013G23KT 1 1/4SM OVC009 14/14 A2984 RMK AO1 RA BR P0009
Loading
Personal Weather Stations






























Interactive Weather Map New forecast layout! Learn more

10-Day Weather Forecast

Advertisements
Track Severe Weather on mobile